createdAt,value
2023-10-26T00:00:09.101Z,31.85
2023-10-26T00:02:39.199Z,29.08
2023-10-26T00:05:05.858Z,32.80
2023-10-26T00:07:32.482Z,26.77
2023-10-26T00:09:58.873Z,49.75
2023-10-26T00:12:25.434Z,35.88
2023-10-26T00:14:52.021Z,38.60
2023-10-26T00:17:18.566Z,32.10
2023-10-26T00:19:44.970Z,41.22
2023-10-26T00:22:11.356Z,31.10
2023-10-26T00:24:38.768Z,34.45
2023-10-26T00:27:05.568Z,34.75
2023-10-26T00:29:32.125Z,39.45
2023-10-26T00:31:58.535Z,38.75
2023-10-26T00:34:24.930Z,32.13
2023-10-26T00:36:51.438Z,28.45
2023-10-26T00:39:19.160Z,28.95
2023-10-26T00:41:45.837Z,33.78
2023-10-26T00:44:12.305Z,31.33
2023-10-26T00:46:38.716Z,26.35
2023-10-26T00:49:05.417Z,38.28
2023-10-26T00:51:33.327Z,29.65
2023-10-26T00:54:02.136Z,36.50
2023-10-26T00:56:28.600Z,42.30
2023-10-26T00:58:56.173Z,41.53
2023-10-26T01:01:22.597Z,35.22
2023-10-26T01:03:50.231Z,39.50
2023-10-26T01:06:16.691Z,41.63
2023-10-26T01:08:43.261Z,49.60
2023-10-26T01:11:12.782Z,44.00
2023-10-26T01:13:39.217Z,51.03
2023-10-26T01:16:08.814Z,40.47
2023-10-26T01:18:35.246Z,41.50
2023-10-26T01:21:01.821Z,60.10
2023-10-26T01:23:28.352Z,50.38
2023-10-26T01:25:55.997Z,39.00
2023-10-26T01:28:24.332Z,42.97
2023-10-26T01:30:51.267Z,48.42
2023-10-26T01:33:17.791Z,44.40
2023-10-26T01:35:47.034Z,43.10
2023-10-26T01:38:13.965Z,48.40
2023-10-26T01:40:40.769Z,44.45
2023-10-26T01:43:07.241Z,43.90
2023-10-26T01:45:34.706Z,59.03
2023-10-26T01:48:01.508Z,60.65
2023-10-26T01:50:28.100Z,36.35
2023-10-26T01:52:55.918Z,46.28
2023-10-26T01:55:23.263Z,47.35
2023-10-26T01:57:49.702Z,48.20
2023-10-26T02:00:16.365Z,41.45
2023-10-26T02:02:43.705Z,50.20
2023-10-26T02:05:10.370Z,40.90
2023-10-26T02:07:38.308Z,44.67
2023-10-26T02:10:04.935Z,48.25
2023-10-26T02:12:31.349Z,40.85
2023-10-26T02:14:57.841Z,46.45
2023-10-26T02:17:24.277Z,48.13
2023-10-26T02:19:50.831Z,37.35
2023-10-26T02:22:17.407Z,48.92
2023-10-26T02:24:44.022Z,44.50
2023-10-26T02:27:10.945Z,41.38
2023-10-26T02:29:37.465Z,54.33
2023-10-26T02:32:04.028Z,35.95
2023-10-26T02:34:31.514Z,44.97
2023-10-26T02:36:58.664Z,48.42
2023-10-26T02:39:26.057Z,48.97
2023-10-26T02:41:52.708Z,50.40
2023-10-26T02:44:19.248Z,62.15
2023-10-26T02:46:45.661Z,71.78
2023-10-26T02:49:12.227Z,80.95
2023-10-26T02:51:38.656Z,44.92
2023-10-26T02:54:05.140Z,64.35
2023-10-26T02:56:31.608Z,68.15
2023-10-26T02:58:58.009Z,82.18
2023-10-26T03:01:25.487Z,51.50
2023-10-26T03:03:52.679Z,77.13
2023-10-26T03:06:19.307Z,60.63
2023-10-26T03:08:45.824Z,54.47
2023-10-26T03:11:12.289Z,57.85
2023-10-26T03:13:38.699Z,79.15
2023-10-26T03:16:07.464Z,152.63
2023-10-26T03:18:33.928Z,116.43
2023-10-26T03:21:00.373Z,83.00
2023-10-26T03:23:26.806Z,145.48
2023-10-26T03:25:53.249Z,143.95
2023-10-26T03:28:19.732Z,164.45
2023-10-26T03:30:46.135Z,376.33
2023-10-26T03:33:12.979Z,282.05
2023-10-26T03:35:39.512Z,344.75
2023-10-26T03:38:05.933Z,555.65
2023-10-26T03:40:34.184Z,414.42
2023-10-26T03:43:00.707Z,445.23
2023-10-26T03:45:29.677Z,369.10
2023-10-26T03:47:56.405Z,415.02
2023-10-26T03:50:23.302Z,455.92
2023-10-26T03:52:49.680Z,395.48
2023-10-26T03:55:17.363Z,616.30
2023-10-26T03:57:45.746Z,486.40
2023-10-26T04:00:12.961Z,351.77
2023-10-26T04:02:40.422Z,438.98
2023-10-26T04:05:07.433Z,481.23
2023-10-26T04:07:34.687Z,491.55
2023-10-26T04:10:01.119Z,506.15
2023-10-26T04:12:28.043Z,588.08
2023-10-26T04:14:54.660Z,587.72
2023-10-26T04:17:23.215Z,570.97
2023-10-26T04:19:49.619Z,594.72
2023-10-26T04:22:16.127Z,427.58
2023-10-26T04:24:42.839Z,548.20
2023-10-26T04:27:09.435Z,331.42
2023-10-26T04:29:35.842Z,390.10
2023-10-26T04:32:02.473Z,556.90
2023-10-26T04:34:29.679Z,441.17
2023-10-26T04:36:57.501Z,448.17
2023-10-26T04:39:24.086Z,543.00
2023-10-26T04:41:50.733Z,646.25
2023-10-26T04:44:19.397Z,536.42
2023-10-26T04:46:45.816Z,385.90
2023-10-26T04:49:12.430Z,532.85
2023-10-26T04:51:39.241Z,405.23
2023-10-26T04:54:06.155Z,466.80
2023-10-26T04:56:32.685Z,487.85
2023-10-26T04:58:59.063Z,484.88
2023-10-26T05:01:25.464Z,549.33
2023-10-26T05:03:54.473Z,511.60
2023-10-26T05:06:21.047Z,474.80
2023-10-26T05:08:48.120Z,482.33
2023-10-26T05:11:15.736Z,400.25
2023-10-26T05:13:42.217Z,463.20
2023-10-26T05:16:08.704Z,578.28
2023-10-26T05:18:35.147Z,554.83
2023-10-26T05:21:01.537Z,609.03
2023-10-26T05:23:27.967Z,589.97
2023-10-26T05:25:55.300Z,461.48
2023-10-26T05:28:21.749Z,534.13
2023-10-26T05:30:48.148Z,499.60
2023-10-26T05:33:16.836Z,486.52
2023-10-26T05:35:45.250Z,570.65
2023-10-26T05:38:11.852Z,462.55
2023-10-26T05:40:38.289Z,492.20
2023-10-26T05:43:04.706Z,507.00
2023-10-26T05:45:38.236Z,495.85
2023-10-26T05:48:06.511Z,364.90
2023-10-26T05:50:33.023Z,403.38
2023-10-26T05:53:00.079Z,361.17
2023-10-26T05:55:26.529Z,258.02
2023-10-26T05:57:52.934Z,413.05
2023-10-26T06:00:19.407Z,347.58
2023-10-26T06:02:45.778Z,348.73
2023-10-26T06:05:12.242Z,386.83
2023-10-26T06:07:38.709Z,302.83
2023-10-26T06:10:06.923Z,285.73
2023-10-26T06:12:33.402Z,340.10
2023-10-26T06:14:59.989Z,282.73
2023-10-26T06:17:26.460Z,301.35
2023-10-26T06:19:52.971Z,310.10
2023-10-26T06:22:19.360Z,327.02
2023-10-26T06:24:45.928Z,364.58
2023-10-26T06:27:12.533Z,431.27
2023-10-26T06:29:39.042Z,260.65
2023-10-26T06:32:05.473Z,313.50
2023-10-26T06:34:32.301Z,305.08
2023-10-26T06:36:58.750Z,243.68
2023-10-26T06:39:27.383Z,279.80
2023-10-26T06:41:58.389Z,323.58
2023-10-26T06:44:25.119Z,263.52
2023-10-26T06:46:51.580Z,323.45
2023-10-26T06:49:29.700Z,289.88
2023-10-26T06:51:57.427Z,341.63
2023-10-26T06:54:24.257Z,236.30
2023-10-26T06:56:50.694Z,466.40
2023-10-26T06:59:17.566Z,353.13
2023-10-26T07:02:08.488Z,317.23
2023-10-26T07:04:33.200Z,260.30
2023-10-26T07:06:59.818Z,457.83
2023-10-26T07:09:26.339Z,366.67
2023-10-26T07:11:52.756Z,327.15
2023-10-26T07:14:19.321Z,317.83
2023-10-26T07:16:45.674Z,397.55
2023-10-26T07:19:12.131Z,381.73
2023-10-26T07:21:38.590Z,391.02
2023-10-26T07:24:05.300Z,281.45
2023-10-26T07:26:33.824Z,251.40
2023-10-26T07:29:00.276Z,343.55
2023-10-26T07:31:26.750Z,217.88
2023-10-26T07:33:53.967Z,170.77
2023-10-26T07:36:20.657Z,245.90
2023-10-26T07:39:46.308Z,198.05
2023-10-26T07:42:06.985Z,307.55
2023-10-26T07:44:23.612Z,201.18
2023-10-26T07:46:49.994Z,199.73
2023-10-26T07:49:16.377Z,237.55
2023-10-26T07:51:42.758Z,225.38
2023-10-26T07:54:10.787Z,223.13
2023-10-26T07:56:39.101Z,146.15
2023-10-26T07:59:05.534Z,248.18
2023-10-26T08:01:32.705Z,214.32
2023-10-26T08:03:59.188Z,147.43
2023-10-26T08:06:25.879Z,175.35
2023-10-26T08:08:53.747Z,178.27
2023-10-26T08:11:20.281Z,168.13
2023-10-26T08:13:47.485Z,125.53
2023-10-26T08:16:42.800Z,97.38
2023-10-26T08:19:01.870Z,150.60
2023-10-26T08:21:28.385Z,159.25
2023-10-26T08:23:54.729Z,87.78
2023-10-26T08:26:21.356Z,181.02
2023-10-26T08:28:47.867Z,233.23
2023-10-26T08:31:14.430Z,53.72
2023-10-26T08:33:40.905Z,113.22
2023-10-26T08:36:09.927Z,82.63
2023-10-26T08:38:36.899Z,62.22
2023-10-26T08:41:03.824Z,80.78
2023-10-26T08:43:30.578Z,77.68
2023-10-26T08:45:59.376Z,106.43
2023-10-26T08:48:26.692Z,68.75
2023-10-26T08:50:53.961Z,46.80
2023-10-26T08:53:20.746Z,32.08
2023-10-26T08:55:53.743Z,54.08
2023-10-26T08:58:21.374Z,55.88
2023-10-26T09:00:47.817Z,39.03
2023-10-26T09:03:14.430Z,45.97
2023-10-26T09:05:54.492Z,54.35
2023-10-26T09:08:21.642Z,31.50
2023-10-26T09:10:48.283Z,38.83
2023-10-26T09:13:22.939Z,20.20
2023-10-26T09:15:50.436Z,47.40
2023-10-26T09:18:17.068Z,36.78
2023-10-26T09:20:44.299Z,38.05
2023-10-26T09:23:27.359Z,44.30
2023-10-26T09:26:00.771Z,29.95
2023-10-26T09:28:28.278Z,18.08
2023-10-26T09:31:00.893Z,19.85
2023-10-26T09:33:27.768Z,18.75
2023-10-26T09:35:54.403Z,17.20
2023-10-26T09:38:40.319Z,23.00
2023-10-26T09:41:11.884Z,22.73
2023-10-26T09:43:41.108Z,19.55
2023-10-26T09:46:19.322Z,25.55
2023-10-26T09:48:48.095Z,21.20
2023-10-26T09:51:16.025Z,16.60
2023-10-26T09:53:44.890Z,19.27
2023-10-26T09:56:18.195Z,21.98
2023-10-26T09:58:44.597Z,19.27
2023-10-26T10:01:29.846Z,18.40
2023-10-26T10:03:56.309Z,20.48
2023-10-26T10:06:42.017Z,18.73
2023-10-26T10:09:08.472Z,20.17
2023-10-26T10:11:34.889Z,18.17
2023-10-26T10:14:01.340Z,18.25
2023-10-26T10:16:37.293Z,18.55
2023-10-26T10:19:24.369Z,21.80
2023-10-26T10:21:52.751Z,19.27
2023-10-26T10:24:38.736Z,16.30
2023-10-26T10:27:08.568Z,19.63
2023-10-26T10:29:35.097Z,18.88
2023-10-26T10:32:01.594Z,17.92
2023-10-26T10:34:42.481Z,17.63
2023-10-26T10:37:12.852Z,22.73
2023-10-26T10:39:40.092Z,18.95
2023-10-26T10:42:11.277Z,19.48
2023-10-26T10:44:39.567Z,17.95
2023-10-26T10:47:07.247Z,18.17
2023-10-26T10:49:33.694Z,17.50
2023-10-26T10:52:00.232Z,15.48
2023-10-26T10:54:40.737Z,16.90
2023-10-26T10:57:13.366Z,16.30
2023-10-26T10:59:39.828Z,18.50
2023-10-26T11:02:07.613Z,16.77
2023-10-26T11:04:39.353Z,19.20
2023-10-26T11:07:14.694Z,16.42
2023-10-26T11:09:41.276Z,14.38
2023-10-26T11:12:12.604Z,15.85
2023-10-26T11:14:51.756Z,18.40
2023-10-26T11:17:18.733Z,14.85
2023-10-26T11:19:46.073Z,17.40
2023-10-26T11:22:15.745Z,16.83
2023-10-26T11:24:42.922Z,13.95
2023-10-26T11:27:13.950Z,16.15
2023-10-26T11:29:44.392Z,14.85
2023-10-26T11:32:26.319Z,14.82
2023-10-26T11:35:12.886Z,14.97
2023-10-26T11:37:41.382Z,17.00
2023-10-26T11:40:08.757Z,14.57
2023-10-26T11:42:54.106Z,18.33
2023-10-26T11:45:21.417Z,19.67
2023-10-26T11:47:48.954Z,17.88
2023-10-26T11:50:28.311Z,16.83
2023-10-26T11:53:04.504Z,19.30
2023-10-26T11:55:32.940Z,19.95
2023-10-26T11:58:01.261Z,21.08
2023-10-26T12:00:28.685Z,19.58
2023-10-26T12:02:56.198Z,17.35
2023-10-26T12:05:24.540Z,15.52
2023-10-26T12:07:51.024Z,16.70
2023-10-26T12:10:19.004Z,16.35
2023-10-26T12:12:45.969Z,17.85
2023-10-26T12:15:12.528Z,16.20
2023-10-26T12:17:39.126Z,13.57
2023-10-26T12:20:05.825Z,14.15
2023-10-26T12:22:33.665Z,17.30
2023-10-26T12:25:05.269Z,13.05
2023-10-26T12:28:21.680Z,12.35
2023-10-26T12:30:20.349Z,11.52
2023-10-26T12:32:46.779Z,12.60
2023-10-26T12:35:13.311Z,13.48
2023-10-26T12:37:40.903Z,12.68
2023-10-26T12:40:09.244Z,11.18
2023-10-26T12:42:36.224Z,14.38
2023-10-26T12:45:02.849Z,11.57
2023-10-26T12:47:29.306Z,9.77
2023-10-26T12:49:55.842Z,10.43
2023-10-26T12:52:22.180Z,14.63
2023-10-26T12:54:48.569Z,14.38
2023-10-26T12:57:14.994Z,11.15
2023-10-26T12:59:41.363Z,12.77
2023-10-26T13:02:07.773Z,10.57
2023-10-26T13:04:34.914Z,10.45
2023-10-26T13:07:01.393Z,11.55
2023-10-26T13:09:29.422Z,11.82
2023-10-26T13:11:56.033Z,11.75
2023-10-26T13:14:22.449Z,11.77
2023-10-26T13:16:49.210Z,12.88
2023-10-26T13:19:24.059Z,10.60
2023-10-26T13:21:50.505Z,11.07
2023-10-26T13:24:16.904Z,9.23
2023-10-26T13:26:43.300Z,10.25
2023-10-26T13:29:09.648Z,9.80
2023-10-26T13:31:36.052Z,11.75
2023-10-26T13:34:03.604Z,11.50
2023-10-26T13:36:30.112Z,11.02
2023-10-26T13:38:57.523Z,11.00
2023-10-26T13:41:26.729Z,10.82
2023-10-26T13:43:54.502Z,10.65
2023-10-26T13:46:21.042Z,9.63
2023-10-26T13:48:48.472Z,12.02
2023-10-26T13:51:18.854Z,10.00
2023-10-26T13:53:45.603Z,10.60
2023-10-26T13:56:11.975Z,11.65
2023-10-26T13:58:40.756Z,11.63
2023-10-26T14:01:14.554Z,10.32
2023-10-26T14:03:41.618Z,10.55
2023-10-26T14:06:12.464Z,10.32
2023-10-26T14:08:40.402Z,10.77
2023-10-26T14:11:06.841Z,11.27
2023-10-26T14:13:33.465Z,12.30
2023-10-26T14:15:59.986Z,12.07
2023-10-26T14:18:27.813Z,11.25
2023-10-26T14:20:54.220Z,12.35
2023-10-26T14:23:21.908Z,15.90
2023-10-26T14:25:49.494Z,15.07
2023-10-26T14:28:15.918Z,11.77
2023-10-26T14:30:42.508Z,11.57
2023-10-26T14:33:10.174Z,17.35
2023-10-26T14:35:36.585Z,13.50
2023-10-26T14:38:03.223Z,13.48
2023-10-26T14:40:30.235Z,15.50
2023-10-26T14:42:57.099Z,13.23
2023-10-26T14:45:26.401Z,15.95
2023-10-26T14:47:53.208Z,12.43
2023-10-26T14:50:21.162Z,15.07
2023-10-26T14:52:47.883Z,15.05
2023-10-26T14:55:14.485Z,16.23
2023-10-26T14:57:40.974Z,9.43
2023-10-26T15:00:08.182Z,15.43
2023-10-26T15:02:34.866Z,12.60
2023-10-26T15:05:01.599Z,12.32
2023-10-26T15:07:28.044Z,12.65
2023-10-26T15:10:22.042Z,13.30
2023-10-26T15:12:42.522Z,13.35
2023-10-26T15:15:09.439Z,12.15
2023-10-26T15:17:36.928Z,12.18
2023-10-26T15:20:04.064Z,15.68
2023-10-26T15:22:30.489Z,14.38
2023-10-26T15:24:56.930Z,12.88
2023-10-26T15:27:23.452Z,21.00
2023-10-26T15:29:49.872Z,12.18
2023-10-26T15:32:19.118Z,11.02
2023-10-26T15:34:47.063Z,10.30
2023-10-26T15:37:13.904Z,13.48
2023-10-26T15:39:44.758Z,11.55
2023-10-26T15:42:13.518Z,12.52
2023-10-26T15:44:40.156Z,10.50
2023-10-26T15:47:06.618Z,11.52
2023-10-26T15:49:36.231Z,11.45
2023-10-26T15:52:03.534Z,11.27
2023-10-26T15:54:30.210Z,10.80
2023-10-26T15:56:57.311Z,11.85
2023-10-26T15:59:24.296Z,12.20
2023-10-26T16:01:50.838Z,10.75
2023-10-26T16:04:17.436Z,10.93
2023-10-26T16:06:45.327Z,10.70
2023-10-26T16:09:11.771Z,13.20
2023-10-26T16:11:39.375Z,17.55
2023-10-26T16:14:05.796Z,13.07
2023-10-26T16:16:32.738Z,11.15
2023-10-26T16:18:59.208Z,13.32
2023-10-26T16:21:27.842Z,12.00
2023-10-26T16:23:54.260Z,13.18
2023-10-26T16:26:20.635Z,12.82
2023-10-26T16:28:49.898Z,13.15
2023-10-26T16:31:17.022Z,11.90
2023-10-26T16:33:44.696Z,12.38
2023-10-26T16:36:11.429Z,15.00
2023-10-26T16:38:37.774Z,12.10
2023-10-26T16:41:04.687Z,14.98
2023-10-26T16:43:31.226Z,16.30
2023-10-26T16:45:57.883Z,12.75
2023-10-26T16:48:26.363Z,16.25
2023-10-26T16:50:53.208Z,15.88
2023-10-26T16:53:30.365Z,18.20
2023-10-26T16:56:01.689Z,16.77
2023-10-26T16:58:29.113Z,14.98
2023-10-26T17:00:59.255Z,21.73
2023-10-26T17:03:26.260Z,15.40
2023-10-26T17:05:52.786Z,16.23
2023-10-26T17:08:20.711Z,15.70
2023-10-26T17:10:49.300Z,14.98
2023-10-26T17:13:18.888Z,19.27
2023-10-26T17:15:46.549Z,17.15
2023-10-26T17:18:13.047Z,17.10
2023-10-26T17:20:39.527Z,17.88
2023-10-26T17:23:05.988Z,17.23
2023-10-26T17:25:36.102Z,16.55
2023-10-26T17:28:02.957Z,17.23
2023-10-26T17:30:29.985Z,16.10
2023-10-26T17:32:56.407Z,17.23
2023-10-26T17:35:22.868Z,25.27
2023-10-26T17:37:49.256Z,17.27
2023-10-26T17:40:15.789Z,20.92
2023-10-26T17:42:42.274Z,22.60
2023-10-26T17:45:09.949Z,18.50
2023-10-26T17:47:36.453Z,14.65
2023-10-26T17:50:05.215Z,18.50
2023-10-26T17:52:32.595Z,17.90
2023-10-26T17:55:00.462Z,17.55
2023-10-26T17:57:29.823Z,21.63
2023-10-26T17:59:56.269Z,21.00
2023-10-26T18:02:24.949Z,20.42
2023-10-26T18:04:51.408Z,18.65
2023-10-26T18:07:20.007Z,16.98
2023-10-26T18:09:46.720Z,21.63
2023-10-26T18:12:16.665Z,17.35
2023-10-26T18:14:43.524Z,19.98
2023-10-26T18:17:10.356Z,17.90
2023-10-26T18:19:36.724Z,19.25
2023-10-26T18:22:04.076Z,17.27
2023-10-26T18:24:34.898Z,15.23
2023-10-26T18:27:01.344Z,15.98
2023-10-26T18:29:28.278Z,16.90
2023-10-26T18:31:56.947Z,15.27
2023-10-26T18:34:23.449Z,27.75
2023-10-26T18:36:49.883Z,25.40
2023-10-26T18:39:16.543Z,30.42
2023-10-26T18:41:45.436Z,29.45
2023-10-26T18:44:12.051Z,24.35
2023-10-26T18:46:41.355Z,62.42
2023-10-26T18:49:10.835Z,87.70
2023-10-26T18:51:37.372Z,23.42
2023-10-26T18:54:04.571Z,26.85
2023-10-26T18:56:31.224Z,17.55
2023-10-26T18:58:57.748Z,17.70
2023-10-26T19:01:27.003Z,17.13
2023-10-26T19:06:24.887Z,15.63
2023-10-26T19:08:51.308Z,15.85
2023-10-26T19:11:17.926Z,18.65
2023-10-26T19:13:44.752Z,21.08
2023-10-26T19:16:11.740Z,18.10
2023-10-26T19:18:40.572Z,19.08
2023-10-26T19:21:07.352Z,16.98
2023-10-26T19:23:33.758Z,16.38
2023-10-26T19:26:02.187Z,20.42
2023-10-26T19:28:30.091Z,14.95
2023-10-26T19:30:56.579Z,15.60
2023-10-26T19:33:29.134Z,23.90
2023-10-26T19:35:55.590Z,17.87
2023-10-26T19:38:22.056Z,17.80
2023-10-26T19:40:48.486Z,20.75
2023-10-26T19:43:14.926Z,19.40
2023-10-26T19:45:43.938Z,17.63
2023-10-26T19:48:13.045Z,16.42
2023-10-26T19:50:41.051Z,18.58
2023-10-26T19:53:07.465Z,15.85
2023-10-26T19:55:33.902Z,20.35
2023-10-26T19:58:00.356Z,20.83
2023-10-26T20:00:29.952Z,22.75
2023-10-26T20:02:56.490Z,18.35
2023-10-26T20:05:23.018Z,17.38
2023-10-26T20:07:50.721Z,21.08
2023-10-26T20:10:17.224Z,18.15
2023-10-26T20:12:43.765Z,21.65
2023-10-26T20:15:12.289Z,20.38
2023-10-26T20:17:38.866Z,25.98
2023-10-26T20:20:10.526Z,26.42
2023-10-26T20:22:36.926Z,22.42
2023-10-26T20:25:05.226Z,27.00
2023-10-26T20:27:31.850Z,28.60
2023-10-26T20:29:58.265Z,28.15
2023-10-26T20:32:24.722Z,29.60
2023-10-26T20:34:53.318Z,27.95
2023-10-26T20:37:19.731Z,23.80
2023-10-26T20:39:46.655Z,21.60
2023-10-26T20:42:13.327Z,25.63
2023-10-26T20:44:39.802Z,28.02
2023-10-26T20:47:06.270Z,27.95
2023-10-26T20:49:32.756Z,24.70
2023-10-26T20:51:59.191Z,25.63
2023-10-26T20:54:25.583Z,24.30
2023-10-26T20:56:51.982Z,30.55
2023-10-26T20:59:18.440Z,29.95
2023-10-26T21:01:46.249Z,25.23
2023-10-26T21:04:13.018Z,26.63
2023-10-26T21:06:39.363Z,24.80
2023-10-26T21:09:05.790Z,26.60
2023-10-26T21:11:32.645Z,27.98
2023-10-26T21:13:59.110Z,28.88
2023-10-26T21:16:26.769Z,29.25
2023-10-26T21:18:53.839Z,27.85
2023-10-26T21:21:21.042Z,31.13
2023-10-26T21:23:50.846Z,30.60
2023-10-26T21:26:17.344Z,30.40
2023-10-26T21:28:43.933Z,32.40
2023-10-26T21:31:10.458Z,29.30
2023-10-26T21:33:38.510Z,31.02
2023-10-26T21:36:06.152Z,25.50
2023-10-26T21:38:32.543Z,27.52
2023-10-26T21:41:02.583Z,28.88
2023-10-26T21:43:30.883Z,24.35
2023-10-26T21:45:58.015Z,32.85
2023-10-26T21:48:29.108Z,27.00
2023-10-26T21:50:55.549Z,30.42
2023-10-26T21:53:22.003Z,31.23
2023-10-26T21:55:49.407Z,25.17
2023-10-26T21:58:15.886Z,29.45
2023-10-26T22:00:45.439Z,26.95
2023-10-26T22:03:12.298Z,29.88
2023-10-26T22:05:39.766Z,31.60
2023-10-26T22:08:06.199Z,35.58
2023-10-26T22:10:32.654Z,32.80
2023-10-26T22:12:59.078Z,29.23
2023-10-26T22:15:25.673Z,29.50
2023-10-26T22:17:53.623Z,34.78
2023-10-26T22:20:20.146Z,28.20
2023-10-26T22:22:46.541Z,36.83
2023-10-26T22:25:13.003Z,34.40
2023-10-26T22:27:39.440Z,29.63
2023-10-26T22:30:07.008Z,30.85
2023-10-26T22:32:33.820Z,34.22
2023-10-26T22:35:00.476Z,29.70
2023-10-26T22:37:27.005Z,31.27
2023-10-26T22:39:54.810Z,35.65
2023-10-26T22:42:22.311Z,32.78
2023-10-26T22:44:50.331Z,31.23
2023-10-26T22:47:16.801Z,27.48
2023-10-26T22:49:43.999Z,33.28
2023-10-26T22:52:10.790Z,33.50
2023-10-26T22:54:38.254Z,31.42
2023-10-26T22:57:04.964Z,34.88
2023-10-26T22:59:31.320Z,38.35
2023-10-26T23:01:57.890Z,41.70
2023-10-26T23:04:24.414Z,35.45
2023-10-26T23:06:51.295Z,33.97
2023-10-26T23:09:18.631Z,36.85
2023-10-26T23:11:45.137Z,36.60
2023-10-26T23:14:11.584Z,41.05
2023-10-26T23:16:38.636Z,35.58
2023-10-26T23:19:05.595Z,33.17
2023-10-26T23:21:33.254Z,28.05
2023-10-26T23:24:00.806Z,32.70
2023-10-26T23:26:27.171Z,32.08
2023-10-26T23:28:53.936Z,39.00
2023-10-26T23:31:20.405Z,38.65
2023-10-26T23:33:48.612Z,41.88
2023-10-26T23:36:16.901Z,39.55
2023-10-26T23:38:46.314Z,33.88
2023-10-26T23:41:13.264Z,38.80
2023-10-26T23:43:41.962Z,43.88
2023-10-26T23:46:09.038Z,42.03
2023-10-26T23:48:39.952Z,38.70
2023-10-26T23:51:06.807Z,47.55
2023-10-26T23:53:35.366Z,42.90
2023-10-26T23:56:04.420Z,53.50
2023-10-26T23:58:31.374Z,41.55
